Time;durP1;ratioP1;P1;durP2;ratioP2;P2;SDS_P1;SDS_P2;PMS_P1;PMS_P2;Temp;Humidity;BMP_temperature;BMP_pressure;BME280_temperature;BME280_humidity;BME280_pressure;Samples;Min_cycle;Max_cycle;Signal;HPM_P1;HPM_P2
2022/04/28 00:00:30;;;;;;;1999.90;999.90;;;;;;;;;;4973244;28;20294;-72
2022/04/28 00:03:15;;;;;;;1999.90;999.90;;;;;;;;;;4973531;28;20576;-72
2022/04/28 00:06:02;;;;;;;1999.90;999.90;;;;;;;;;;4973447;28;20566;-71
2022/04/28 00:08:47;;;;;;;1999.90;999.90;;;;;;;;;;4973070;28;20215;-72
2022/04/28 00:11:31;;;;;;;1999.90;999.90;;;;;;;;;;4973329;28;20570;-72
2022/04/28 00:14:16;;;;;;;1999.90;999.90;;;;;;;;;;4973396;28;20211;-70
2022/04/28 00:17:01;;;;;;;1999.90;999.90;;;;;;;;;;4972957;28;20209;-72
2022/04/28 00:19:46;;;;;;;1999.90;999.90;;;;;;;;;;4972214;28;20286;-72
2022/04/28 00:22:32;;;;;;;1999.90;999.90;;;;;;;;;;4973299;28;20289;-70
2022/04/28 00:25:17;;;;;;;1999.90;999.90;;;;;;;;;;4973314;28;20210;-70
2022/04/28 00:28:02;;;;;;;1999.90;999.90;;;;;;;;;;4972247;28;20235;-72
2022/04/28 00:30:47;;;;;;;1999.90;999.90;;;;;;;;;;4953861;28;20249;-72
2022/04/28 00:33:31;;;;;;;1999.90;999.90;;;;;;;;;;4953639;29;20231;-71
2022/04/28 00:36:16;;;;;;;1999.90;999.90;;;;;;;;;;4953830;29;20262;-72
2022/04/28 00:39:03;;;;;;;1999.90;999.90;;;;;;;;;;4953570;28;20278;-71
2022/04/28 00:41:48;;;;;;;1999.90;999.90;;;;;;;;;;4952540;29;20444;-71
2022/04/28 00:44:32;;;;;;;1999.90;999.90;;;;;;;;;;4953844;29;20217;-72
2022/04/28 00:47:17;;;;;;;1999.90;999.90;;;;;;;;;;4953736;29;20261;-71
2022/04/28 00:53:07;;;;;;;1999.90;999.90;;;;;;;;;;4953420;29;20274;-72
2022/04/28 00:55:53;;;;;;;1999.90;999.90;;;;;;;;;;4953507;29;20211;-71
2022/04/28 00:58:39;;;;;;;1999.90;999.90;;;;;;;;;;4959199;28;20219;-71
2022/04/28 01:01:24;;;;;;;1999.90;999.90;;;;;;;;;;4972939;28;20210;-71
2022/04/28 01:04:09;;;;;;;1999.90;999.90;;;;;;;;;;4972775;28;20203;-71
2022/04/28 01:06:54;;;;;;;1999.90;999.90;;;;;;;;;;4972967;28;20207;-71
2022/04/28 01:09:41;;;;;;;1999.90;999.90;;;;;;;;;;4972637;28;20231;-71
2022/04/28 01:12:27;;;;;;;1999.90;999.90;;;;;;;;;;4972455;28;20234;-71
2022/04/28 01:15:12;;;;;;;1999.90;999.90;;;;;;;;;;4953289;29;20212;-72
2022/04/28 01:17:57;;;;;;;1999.90;999.90;;;;;;;;;;4953231;29;20212;-71
2022/04/28 01:20:42;;;;;;;1999.90;999.90;;;;;;;;;;4952608;28;20504;-71
2022/04/28 01:23:29;;;;;;;1999.90;999.90;;;;;;;;;;4953496;29;20268;-71
2022/04/28 01:26:14;;;;;;;1999.90;999.90;;;;;;;;;;4953268;29;20639;-71
2022/04/28 01:28:59;;;;;;;1999.90;999.90;;;;;;;;;;4953068;28;20235;-71
2022/04/28 01:31:44;;;;;;;1999.90;999.90;;;;;;;;;;4960425;28;20310;-70
2022/04/28 01:34:29;;;;;;;1999.90;999.90;;;;;;;;;;4972671;28;20206;-72
2022/04/28 01:37:14;;;;;;;1999.90;999.90;;;;;;;;;;4972361;28;20265;-72
2022/04/28 01:40:00;;;;;;;1999.90;999.90;;;;;;;;;;4972575;28;20350;-71
2022/04/28 01:42:46;;;;;;;1999.90;999.90;;;;;;;;;;4976085;28;20205;-71
2022/04/28 01:45:31;;;;;;;1999.90;999.90;;;;;;;;;;4975916;28;20569;-71
2022/04/28 01:48:16;;;;;;;1999.90;999.90;;;;;;;;;;4975647;28;20713;-71
2022/04/28 01:57:19;;;;;;;1999.90;999.90;;;;;;;;;;4975808;28;20254;-70
2022/04/28 02:00:06;;;;;;;1999.90;999.90;;;;;;;;;;4975238;28;20610;-69
2022/04/28 02:02:51;;;;;;;1999.90;999.90;;;;;;;;;;4975227;28;20413;-70
2022/04/28 02:05:35;;;;;;;1999.90;999.90;;;;;;;;;;4975643;28;20205;-70
2022/04/28 02:08:20;;;;;;;1999.90;999.90;;;;;;;;;;4975266;28;20301;-70
2022/04/28 02:11:06;;;;;;;1999.90;999.90;;;;;;;;;;4975187;28;20223;-72
2022/04/28 02:13:52;;;;;;;1999.90;999.90;;;;;;;;;;4975313;28;20831;-70
2022/04/28 02:16:37;;;;;;;1999.90;999.90;;;;;;;;;;4974735;28;20295;-71
2022/04/28 02:19:22;;;;;;;1999.90;999.90;;;;;;;;;;4963767;28;20729;-70
2022/04/28 02:22:07;;;;;;;1999.90;999.90;;;;;;;;;;4975331;28;20209;-70
2022/04/28 02:24:52;;;;;;;1999.90;999.90;;;;;;;;;;4955983;29;20290;-72
2022/04/28 02:27:37;;;;;;;1999.90;999.90;;;;;;;;;;4955749;29;20209;-69
2022/04/28 02:30:23;;;;;;;1999.90;999.90;;;;;;;;;;4955847;28;20245;-70
2022/04/28 02:33:11;;;;;;;1999.90;999.90;;;;;;;;;;4955420;29;20226;-71
2022/04/28 02:35:56;;;;;;;1999.90;999.90;;;;;;;;;;4966931;28;20218;-70
2022/04/28 02:38:41;;;;;;;1999.90;999.90;;;;;;;;;;4974706;28;20691;-71
2022/04/28 02:41:26;;;;;;;1999.90;999.90;;;;;;;;;;4975084;28;20204;-70
2022/04/28 02:44:13;;;;;;;1999.90;999.90;;;;;;;;;;4974705;28;20208;-70
2022/04/28 02:46:59;;;;;;;1999.90;999.90;;;;;;;;;;4973490;28;20407;-69
2022/04/28 02:49:44;;;;;;;1999.90;999.90;;;;;;;;;;4974461;28;20319;-71
2022/04/28 02:52:30;;;;;;;1999.90;999.90;;;;;;;;;;4974468;28;20243;-69
2022/04/28 02:55:15;;;;;;;1999.90;999.90;;;;;;;;;;4974755;28;20297;-70
2022/04/28 02:58:00;;;;;;;1999.90;999.90;;;;;;;;;;4974442;28;20205;-71
2022/04/28 03:00:45;;;;;;;1999.90;999.90;;;;;;;;;;4974315;28;20587;-70
2022/04/28 03:03:31;;;;;;;1999.90;999.90;;;;;;;;;;4974556;28;20243;-71
2022/04/28 03:12:22;;;;;;;1999.90;999.90;;;;;;;;;;4974285;28;20711;-71
2022/04/28 03:15:07;;;;;;;1999.90;999.90;;;;;;;;;;4974353;28;20264;-72
2022/04/28 03:17:52;;;;;;;1999.90;999.90;;;;;;;;;;4974007;28;20204;-71
2022/04/28 03:20:38;;;;;;;1999.90;999.90;;;;;;;;;;4974073;28;20247;-71
2022/04/28 03:23:24;;;;;;;1999.90;999.90;;;;;;;;;;4974101;28;20200;-70
2022/04/28 03:26:09;;;;;;;1999.90;999.90;;;;;;;;;;4974141;28;20298;-71
2022/04/28 03:28:54;;;;;;;1999.90;999.90;;;;;;;;;;4972949;28;20471;-71
2022/04/28 03:31:39;;;;;;;1999.90;999.90;;;;;;;;;;4973701;28;20513;-70
2022/04/28 03:34:25;;;;;;;1999.90;999.90;;;;;;;;;;4973742;28;20736;-70
2022/04/28 03:37:11;;;;;;;1999.90;999.90;;;;;;;;;;4973964;28;20389;-72
2022/04/28 03:39:56;;;;;;;1999.90;999.90;;;;;;;;;;4973300;28;20227;-71
2022/04/28 03:42:41;;;;;;;1999.90;999.90;;;;;;;;;;4973827;28;20205;-70
2022/04/28 03:45:26;;;;;;;1999.90;999.90;;;;;;;;;;4973589;28;20204;-70
2022/04/28 03:48:11;;;;;;;1999.90;999.90;;;;;;;;;;4973417;28;20255;-70
2022/04/28 03:50:56;;;;;;;1999.90;999.90;;;;;;;;;;4973700;28;20211;-70
2022/04/28 03:53:42;;;;;;;1999.90;999.90;;;;;;;;;;4973528;28;20307;-70
2022/04/28 03:56:31;;;;;;;1999.90;999.90;;;;;;;;;;4973402;28;20208;-70
2022/04/28 03:59:16;;;;;;;1999.90;999.90;;;;;;;;;;4973021;28;20352;-70
2022/04/28 04:02:01;;;;;;;1999.90;999.90;;;;;;;;;;4973291;28;20213;-72
2022/04/28 04:04:46;;;;;;;1999.90;999.90;;;;;;;;;;4973133;28;20701;-70
2022/04/28 04:07:31;;;;;;;1999.90;999.90;;;;;;;;;;4973508;28;20290;-69
2022/04/28 04:10:18;;;;;;;1999.90;999.90;;;;;;;;;;4973377;28;20304;-70
2022/04/28 04:13:03;;;;;;;1999.90;999.90;;;;;;;;;;4971898;28;20454;-70
2022/04/28 04:15:50;;;;;;;1999.90;999.90;;;;;;;;;;4973381;28;20212;-70
2022/04/28 04:18:35;;;;;;;1999.90;999.90;;;;;;;;;;4971915;28;20220;-70
2022/04/28 04:21:20;;;;;;;1999.90;999.90;;;;;;;;;;4972783;28;20283;-69
2022/04/28 04:24:06;;;;;;;1999.90;999.90;;;;;;;;;;4972635;28;20199;-70
2022/04/28 04:26:52;;;;;;;1999.90;999.90;;;;;;;;;;4973270;28;20204;-70
2022/04/28 04:29:37;;;;;;;1999.90;999.90;;;;;;;;;;4972912;28;20228;-69
2022/04/28 04:32:25;;;;;;;1999.90;999.90;;;;;;;;;;4972924;28;20828;-70
2022/04/28 04:35:10;;;;;;;1999.90;999.90;;;;;;;;;;4973187;28;20219;-71
2022/04/28 04:37:55;;;;;;;1999.90;999.90;;;;;;;;;;4972896;28;20211;-71
2022/04/28 04:40:40;;;;;;;1999.90;999.90;;;;;;;;;;4973011;28;20225;-70
2022/04/28 04:43:26;;;;;;;1999.90;999.90;;;;;;;;;;4973138;28;20224;-70
2022/04/28 04:46:11;;;;;;;1999.90;999.90;;;;;;;;;;4972460;28;20208;-70
2022/04/28 04:48:56;;;;;;;1999.90;999.90;;;;;;;;;;4972657;28;20864;-69
2022/04/28 04:51:41;;;;;;;1999.90;999.90;;;;;;;;;;4973082;28;20200;-70
2022/04/28 04:54:26;;;;;;;1999.90;999.90;;;;;;;;;;4972083;28;20526;-71
2022/04/28 04:57:11;;;;;;;1999.90;999.90;;;;;;;;;;4972918;28;20212;-70
2022/04/28 04:59:58;;;;;;;1999.90;999.90;;;;;;;;;;4972082;28;20303;-69
2022/04/28 05:02:42;;;;;;;1999.90;999.90;;;;;;;;;;4953678;29;20216;-69
2022/04/28 05:05:27;;;;;;;1999.90;999.90;;;;;;;;;;4953634;29;20204;-70
2022/04/28 05:08:14;;;;;;;1999.90;999.90;;;;;;;;;;4953102;29;20305;-70
2022/04/28 05:10:59;;;;;;;1999.90;999.90;;;;;;;;;;4953565;29;20211;-72
2022/04/28 05:13:44;;;;;;;1999.90;999.90;;;;;;;;;;4953358;28;20794;-71
2022/04/28 05:16:31;;;;;;;1999.90;999.90;;;;;;;;;;4976141;28;20776;-72
2022/04/28 05:19:15;;;;;;;1999.90;999.90;;;;;;;;;;4976011;28;20236;-70
2022/04/28 05:22:00;;;;;;;1999.90;999.90;;;;;;;;;;4976397;28;20208;-71
2022/04/28 05:24:45;;;;;;;1999.90;999.90;;;;;;;;;;4976398;28;20200;-71
2022/04/28 05:27:30;;;;;;;1999.90;999.90;;;;;;;;;;4976332;28;20284;-74
2022/04/28 05:30:15;;;;;;;1999.90;999.90;;;;;;;;;;4975557;28;20236;-69
2022/04/28 05:33:01;;;;;;;1999.90;999.90;;;;;;;;;;4976198;28;20223;-69
2022/04/28 05:35:46;;;;;;;1999.90;999.90;;;;;;;;;;4976235;28;20214;-71
2022/04/28 05:38:32;;;;;;;1999.90;999.90;;;;;;;;;;4975826;28;20764;-71
2022/04/28 05:41:17;;;;;;;1999.90;999.90;;;;;;;;;;4975960;28;20314;-72
2022/04/28 05:47:05;;;;;;;1999.90;999.90;;;;;;;;;;4975904;28;20201;-71
2022/04/28 05:49:52;;;;;;;1999.90;999.90;;;;;;;;;;4975585;28;20590;-70
2022/04/28 05:52:37;;;;;;;1999.90;999.90;;;;;;;;;;4975600;28;20219;-70
2022/04/28 05:55:22;;;;;;;1999.90;999.90;;;;;;;;;;4975790;28;20585;-72
2022/04/28 05:58:07;;;;;;;1999.90;999.90;;;;;;;;;;4975544;28;20591;-70
2022/04/28 06:00:52;;;;;;;1999.90;999.90;;;;;;;;;;4975676;28;20268;-72
2022/04/28 06:03:37;;;;;;;1999.90;999.90;;;;;;;;;;4975394;28;20260;-70
2022/04/28 06:06:23;;;;;;;1999.90;999.90;;;;;;;;;;4975623;28;20228;-72
2022/04/28 06:09:08;;;;;;;1999.90;999.90;;;;;;;;;;4973562;28;20431;-71
2022/04/28 06:11:53;;;;;;;1999.90;999.90;;;;;;;;;;4958320;28;20235;-71
2022/04/28 06:14:39;;;;;;;1999.90;999.90;;;;;;;;;;4975086;28;20356;-69
2022/04/28 06:17:24;;;;;;;1999.90;999.90;;;;;;;;;;4975049;28;20351;-70
2022/04/28 06:20:09;;;;;;;1999.90;999.90;;;;;;;;;;4967995;28;20536;-70
2022/04/28 06:22:56;;;;;;;1999.90;999.90;;;;;;;;;;4975293;28;20209;-70
2022/04/28 06:25:41;;;;;;;1999.90;999.90;;;;;;;;;;4974789;28;20285;-71
2022/04/28 06:28:26;;;;;;;1999.90;999.90;;;;;;;;;;4974833;28;20212;-71
2022/04/28 06:31:11;;;;;;;1999.90;999.90;;;;;;;;;;4975120;28;20629;-70
2022/04/28 06:33:55;;;;;;;1999.90;999.90;;;;;;;;;;4975014;28;20226;-70
2022/04/28 06:36:40;;;;;;;1999.90;999.90;;;;;;;;;;4975013;28;20290;-71
2022/04/28 06:39:27;;;;;;;1999.90;999.90;;;;;;;;;;4970117;28;20231;-69
2022/04/28 06:42:12;;;;;;;1999.90;999.90;;;;;;;;;;4969565;28;20757;-70
2022/04/28 06:44:57;;;;;;;1999.90;999.90;;;;;;;;;;4960922;28;20254;-67
2022/04/28 06:47:42;;;;;;;1999.90;999.90;;;;;;;;;;4973451;28;20290;-71
2022/04/28 06:50:28;;;;;;;1999.90;999.90;;;;;;;;;;4973414;28;20416;-70
2022/04/28 06:53:12;;;;;;;1999.90;999.90;;;;;;;;;;4973698;28;20611;-71
2022/04/28 06:55:59;;;;;;;1999.90;999.90;;;;;;;;;;4955433;29;20606;-71
2022/04/28 06:58:44;;;;;;;1999.90;999.90;;;;;;;;;;4964232;28;20282;-71
2022/04/28 07:01:29;;;;;;;1999.90;999.90;;;;;;;;;;4973596;28;20921;-70
2022/04/28 07:04:14;;;;;;;1999.90;999.90;;;;;;;;;;4974199;28;20224;-70
2022/04/28 07:06:59;;;;;;;1999.90;999.90;;;;;;;;;;4974447;28;20208;-71
2022/04/28 07:09:44;;;;;;;1999.90;999.90;;;;;;;;;;4974066;28;20275;-72
2022/04/28 07:12:30;;;;;;;1999.90;999.90;;;;;;;;;;4973815;28;20219;-71
2022/04/28 07:15:15;;;;;;;1999.90;999.90;;;;;;;;;;4967300;28;20302;-70
2022/04/28 07:18:01;;;;;;;1999.90;999.90;;;;;;;;;;4993481;28;20290;-70
2022/04/28 07:20:46;;;;;;;1999.90;999.90;;;;;;;;;;4993201;28;20385;-68
2022/04/28 07:23:31;;;;;;;1999.90;999.90;;;;;;;;;;4993638;28;20240;-70
2022/04/28 07:26:16;;;;;;;1999.90;999.90;;;;;;;;;;4991165;28;20230;-70
2022/04/28 07:29:03;;;;;;;1999.90;999.90;;;;;;;;;;4975869;28;20223;-69
2022/04/28 07:31:48;;;;;;;1999.90;999.90;;;;;;;;;;4958211;28;20212;-71
2022/04/28 07:34:32;;;;;;;1999.90;999.90;;;;;;;;;;4973748;28;20220;-69
2022/04/28 07:37:17;;;;;;;1999.90;999.90;;;;;;;;;;4973176;28;20587;-70
2022/04/28 07:40:03;;;;;;;1999.90;999.90;;;;;;;;;;4972497;28;20419;-70
2022/04/28 07:42:47;;;;;;;1999.90;999.90;;;;;;;;;;4973377;28;20208;-71
2022/04/28 07:45:34;;;;;;;1999.90;999.90;;;;;;;;;;4973401;28;20259;-69
2022/04/28 07:48:18;;;;;;;1999.90;999.90;;;;;;;;;;4973486;28;20219;-71
2022/04/28 07:51:04;;;;;;;1999.90;999.90;;;;;;;;;;4973656;28;20294;-72
2022/04/28 07:53:49;;;;;;;1999.90;999.90;;;;;;;;;;4973220;28;20203;-71
2022/04/28 07:56:34;;;;;;;1999.90;999.90;;;;;;;;;;4973565;28;20208;-71
2022/04/28 07:59:19;;;;;;;1999.90;999.90;;;;;;;;;;4963109;28;20356;-70
2022/04/28 08:02:05;;;;;;;1999.90;999.90;;;;;;;;;;4960716;28;20702;-70
2022/04/28 08:04:50;;;;;;;1999.90;999.90;;;;;;;;;;4973539;28;20208;-70
2022/04/28 08:07:35;;;;;;;1999.90;999.90;;;;;;;;;;4973203;28;20287;-71
2022/04/28 08:10:20;;;;;;;1999.90;999.90;;;;;;;;;;4973261;28;20220;-70
2022/04/28 08:13:05;;;;;;;1999.90;999.90;;;;;;;;;;4973155;28;20207;-70
2022/04/28 08:15:50;;;;;;;1999.90;999.90;;;;;;;;;;4972971;28;20228;-69
2022/04/28 08:18:37;;;;;;;1999.90;999.90;;;;;;;;;;4972184;28;20410;-71
2022/04/28 08:21:23;;;;;;;1999.90;999.90;;;;;;;;;;4972998;28;20212;-70
2022/04/28 08:24:07;;;;;;;1999.90;999.90;;;;;;;;;;4973286;28;20211;-70
2022/04/28 08:26:52;;;;;;;1999.90;999.90;;;;;;;;;;4972936;28;20207;-71
2022/04/28 08:29:38;;;;;;;1999.90;999.90;;;;;;;;;;4972654;28;20224;-68
2022/04/28 08:32:22;;;;;;;1999.90;999.90;;;;;;;;;;4987729;28;20215;-68
2022/04/28 08:35:09;;;;;;;1999.90;999.90;;;;;;;;;;4992521;28;20302;-69
2022/04/28 08:37:54;;;;;;;1999.90;999.90;;;;;;;;;;4953357;29;20717;-68
2022/04/28 08:40:39;;;;;;;1999.90;999.90;;;;;;;;;;4953806;28;20588;-69
2022/04/28 08:43:26;;;;;;;1999.90;999.90;;;;;;;;;;4953632;29;20220;-69
2022/04/28 08:49:14;;;;;;;1999.90;999.90;;;;;;;;;;4952741;28;20472;-69
2022/04/28 08:52:02;;;;;;;1999.90;999.90;;;;;;;;;;4957537;29;20216;-70
2022/04/28 08:54:47;;;;;;;1999.90;999.90;;;;;;;;;;4957271;29;20623;-69
2022/04/28 08:57:34;;;;;;;1999.90;999.90;;;;;;;;;;4957465;29;20239;-69
2022/04/28 09:00:19;;;;;;;1999.90;999.90;;;;;;;;;;4957231;28;20354;-70
2022/04/28 09:03:04;;;;;;;1999.90;999.90;;;;;;;;;;4957262;29;20211;-69
2022/04/28 09:05:49;;;;;;;1999.90;999.90;;;;;;;;;;4963027;28;20267;-70
2022/04/28 09:08:36;;;;;;;1999.90;999.90;;;;;;;;;;4967329;28;20702;-71
2022/04/28 09:11:22;;;;;;;1999.90;999.90;;;;;;;;;;4976001;28;20203;-70
2022/04/28 09:14:11;;;;;;;1999.90;999.90;;;;;;;;;;4976063;28;20251;-70
2022/04/28 09:16:58;;;;;;;1999.90;999.90;;;;;;;;;;4976489;28;20278;-70
2022/04/28 09:19:43;;;;;;;1999.90;999.90;;;;;;;;;;4975589;28;20258;-71
2022/04/28 09:22:31;;;;;;;1999.90;999.90;;;;;;;;;;4976268;28;20677;-68
2022/04/28 09:25:20;;;;;;;1999.90;999.90;;;;;;;;;;4976215;28;20596;-69
2022/04/28 09:28:05;;;;;;;1999.90;999.90;;;;;;;;;;4975642;28;20210;-70
2022/04/28 09:30:51;;;;;;;1999.90;999.90;;;;;;;;;;4976072;28;20212;-70
2022/04/28 09:33:37;;;;;;;1999.90;999.90;;;;;;;;;;4976012;28;20256;-70
2022/04/28 09:36:22;;;;;;;1999.90;999.90;;;;;;;;;;4975589;28;20252;-71
2022/04/28 09:39:07;;;;;;;1999.90;999.90;;;;;;;;;;4975816;28;20358;-70
2022/04/28 09:44:57;;;;;;;1999.90;999.90;;;;;;;;;;4975355;28;20203;-72
2022/04/28 09:47:42;;;;;;;1999.90;999.90;;;;;;;;;;4975091;28;20409;-69
2022/04/28 09:50:27;;;;;;;1999.90;999.90;;;;;;;;;;4975625;28;20232;-71
2022/04/28 09:53:14;;;;;;;1999.90;999.90;;;;;;;;;;4975755;28;20695;-69
2022/04/28 09:56:01;;;;;;;1999.90;999.90;;;;;;;;;;4974675;28;20224;-70
2022/04/28 09:58:48;;;;;;;1999.90;999.90;;;;;;;;;;4966805;28;20219;-70
2022/04/28 10:01:33;;;;;;;1999.90;999.90;;;;;;;;;;4974416;28;20228;-72
2022/04/28 10:04:18;;;;;;;1999.90;999.90;;;;;;;;;;4973802;28;20207;-69
2022/04/28 10:07:06;;;;;;;1999.90;999.90;;;;;;;;;;4974236;28;20212;-69
2022/04/28 10:09:52;;;;;;;1999.90;999.90;;;;;;;;;;4969615;28;21363;-69
2022/04/28 10:12:39;;;;;;;1999.90;999.90;;;;;;;;;;4960159;28;20412;-68
2022/04/28 10:15:27;;;;;;;1999.90;999.90;;;;;;;;;;4955600;28;20220;-69
2022/04/28 10:18:14;;;;;;;1999.90;999.90;;;;;;;;;;4966776;28;20216;-69
2022/04/28 10:21:00;;;;;;;1999.90;999.90;;;;;;;;;;4956907;28;20691;-70
2022/04/28 10:33:06;;;;;;;1999.90;999.90;;;;;;;;;;4975114;28;20207;-70
2022/04/28 10:35:54;;;;;;;1999.90;999.90;;;;;;;;;;4974419;28;20231;-69
2022/04/28 10:38:41;;;;;;;1999.90;999.90;;;;;;;;;;4974522;28;20694;-70
2022/04/28 10:41:27;;;;;;;1999.90;999.90;;;;;;;;;;4974913;28;20570;-70
2022/04/28 10:44:17;;;;;;;1999.90;999.90;;;;;;;;;;4974888;28;20586;-70
2022/04/28 10:47:07;;;;;;;1999.90;999.90;;;;;;;;;;4955202;29;20286;-72
2022/04/28 10:49:54;;;;;;;1999.90;999.90;;;;;;;;;;4960407;28;20231;-71
2022/04/28 10:52:40;;;;;;;1999.90;999.90;;;;;;;;;;4974532;28;20235;-70
2022/04/28 10:55:30;;;;;;;1999.90;999.90;;;;;;;;;;4973436;28;20443;-69
2022/04/28 10:58:18;;;;;;;1999.90;999.90;;;;;;;;;;4973984;28;20204;-70
2022/04/28 11:01:04;;;;;;;1999.90;999.90;;;;;;;;;;4973539;28;20207;-70
2022/04/28 11:03:52;;;;;;;1999.90;999.90;;;;;;;;;;4974212;28;20215;-71
2022/04/28 11:06:46;;;;;;;1999.90;999.90;;;;;;;;;;4973616;28;20415;-70
2022/04/28 11:09:32;;;;;;;1999.90;999.90;;;;;;;;;;4973497;28;20244;-69
2022/04/28 11:12:18;;;;;;;1999.90;999.90;;;;;;;;;;4974183;28;20267;-71
2022/04/28 11:15:05;;;;;;;1999.90;999.90;;;;;;;;;;4968310;28;20226;-71
2022/04/28 11:17:51;;;;;;;1999.90;999.90;;;;;;;;;;4973931;28;20216;-68
2022/04/28 11:20:38;;;;;;;1999.90;999.90;;;;;;;;;;4973224;28;20314;-68
2022/04/28 11:23:25;;;;;;;1999.90;999.90;;;;;;;;;;4972495;28;20231;-71
2022/04/28 11:26:10;;;;;;;1999.90;999.90;;;;;;;;;;4973802;28;20227;-70
2022/04/28 11:28:55;;;;;;;1999.90;999.90;;;;;;;;;;4971147;28;20319;-70
2022/04/28 11:31:45;;;;;;;1999.90;999.90;;;;;;;;;;4973845;28;20209;-70
2022/04/28 11:34:30;;;;;;;1999.90;999.90;;;;;;;;;;4973429;28;20207;-71
2022/04/28 11:37:17;;;;;;;1999.90;999.90;;;;;;;;;;4972881;28;20223;-69
2022/04/28 11:40:04;;;;;;;1999.90;999.90;;;;;;;;;;4970799;28;20227;-70
2022/04/28 11:42:55;;;;;;;1999.90;999.90;;;;;;;;;;4971145;28;20204;-70
2022/04/28 11:45:42;;;;;;;1999.90;999.90;;;;;;;;;;4973806;28;20313;-69
2022/04/28 11:48:27;;;;;;;1999.90;999.90;;;;;;;;;;4972176;28;20486;-70
2022/04/28 11:51:12;;;;;;;1999.90;999.90;;;;;;;;;;4973236;28;20758;-70
2022/04/28 11:53:57;;;;;;;1999.90;999.90;;;;;;;;;;4973654;28;20242;-68
2022/04/28 11:56:43;;;;;;;1999.90;999.90;;;;;;;;;;4970012;28;20219;-70
2022/04/28 11:59:35;;;;;;;1999.90;999.90;;;;;;;;;;4958744;28;20730;-70
2022/04/28 12:02:24;;;;;;;1999.90;999.90;;;;;;;;;;4957740;28;20204;-69
2022/04/28 12:05:16;;;;;;;1999.90;999.90;;;;;;;;;;4953862;28;20228;-69
2022/04/28 12:08:01;;;;;;;1999.90;999.90;;;;;;;;;;4969188;28;20332;-70
2022/04/28 12:19:58;;;;;;;1999.90;999.90;;;;;;;;;;4957759;28;20423;-71
2022/04/28 12:22:44;;;;;;;1999.90;999.90;;;;;;;;;;4971867;28;20302;-70
2022/04/28 12:25:31;;;;;;;1999.90;999.90;;;;;;;;;;4972432;28;20216;-71
2022/04/28 12:28:19;;;;;;;1999.90;999.90;;;;;;;;;;4972433;28;20212;-69
2022/04/28 12:31:06;;;;;;;1999.90;999.90;;;;;;;;;;4971840;28;20419;-68
2022/04/28 12:33:52;;;;;;;1999.90;999.90;;;;;;;;;;4972970;28;20212;-70
2022/04/28 12:36:44;;;;;;;1999.90;999.90;;;;;;;;;;4972392;28;20228;-69
2022/04/28 12:39:29;;;;;;;1999.90;999.90;;;;;;;;;;4972610;28;20296;-70
2022/04/28 12:42:14;;;;;;;1999.90;999.90;;;;;;;;;;4972569;28;20216;-70
2022/04/28 12:45:00;;;;;;;1999.90;999.90;;;;;;;;;;4972699;28;20754;-69
2022/04/28 12:47:50;;;;;;;1999.90;999.90;;;;;;;;;;4966754;28;20216;-69
2022/04/28 12:50:36;;;;;;;1999.90;999.90;;;;;;;;;;4953837;28;20284;-71
2022/04/28 12:53:30;;;;;;;1999.90;999.90;;;;;;;;;;4964573;28;20707;-71
2022/04/28 12:56:16;;;;;;;1999.90;999.90;;;;;;;;;;4970590;28;20694;-71
2022/04/28 12:59:02;;;;;;;1999.90;999.90;;;;;;;;;;4969833;28;20523;-71
2022/04/28 13:01:47;;;;;;;1999.90;999.90;;;;;;;;;;4952787;28;20208;-70
2022/04/28 13:04:36;;;;;;;1999.90;999.90;;;;;;;;;;4964435;28;20208;-69
2022/04/28 13:07:22;;;;;;;1999.90;999.90;;;;;;;;;;4968907;28;20212;-70
2022/04/28 13:10:07;;;;;;;1999.90;999.90;;;;;;;;;;4968854;28;20412;-71
2022/04/28 13:12:52;;;;;;;1999.90;999.90;;;;;;;;;;4971441;28;20220;-71
2022/04/28 13:15:37;;;;;;;1999.90;999.90;;;;;;;;;;4972351;28;20224;-70
2022/04/28 13:18:22;;;;;;;1999.90;999.90;;;;;;;;;;4972422;28;20212;-70
2022/04/28 13:21:11;;;;;;;1999.90;999.90;;;;;;;;;;4972248;28;20216;-70
2022/04/28 13:23:56;;;;;;;1999.90;999.90;;;;;;;;;;4972460;28;20224;-70
2022/04/28 13:26:41;;;;;;;1999.90;999.90;;;;;;;;;;4971336;28;20252;-71
2022/04/28 13:29:26;;;;;;;1999.90;999.90;;;;;;;;;;4970162;28;20231;-70
2022/04/28 13:32:11;;;;;;;1999.90;999.90;;;;;;;;;;4972088;28;20259;-71
2022/04/28 13:34:56;;;;;;;1999.90;999.90;;;;;;;;;;4963732;28;20231;-69
2022/04/28 13:37:43;;;;;;;1999.90;999.90;;;;;;;;;;4975263;28;20613;-70
2022/04/28 13:40:28;;;;;;;1999.90;999.90;;;;;;;;;;4975723;28;20730;-68
2022/04/28 13:43:13;;;;;;;1999.90;999.90;;;;;;;;;;4975947;28;20268;-70
2022/04/28 13:46:00;;;;;;;1999.90;999.90;;;;;;;;;;4974914;28;20247;-70
2022/04/28 13:48:45;;;;;;;1999.90;999.90;;;;;;;;;;4975576;28;20232;-69
2022/04/28 13:51:30;;;;;;;1999.90;999.90;;;;;;;;;;4974741;28;20808;-69
2022/04/28 13:54:17;;;;;;;1999.90;999.90;;;;;;;;;;4975799;28;20214;-69
2022/04/28 13:57:02;;;;;;;1999.90;999.90;;;;;;;;;;4975249;28;20224;-69
2022/04/28 13:59:47;;;;;;;1999.90;999.90;;;;;;;;;;4955948;28;20308;-69
2022/04/28 14:02:32;;;;;;;1999.90;999.90;;;;;;;;;;4966464;28;20215;-69
2022/04/28 14:05:17;;;;;;;1999.90;999.90;;;;;;;;;;4975596;28;20299;-69
2022/04/28 14:08:01;;;;;;;1999.90;999.90;;;;;;;;;;4975279;28;20215;-70
2022/04/28 14:10:48;;;;;;;1999.90;999.90;;;;;;;;;;4975425;28;20243;-70
2022/04/28 14:13:34;;;;;;;1999.90;999.90;;;;;;;;;;4975194;28;20208;-67
2022/04/28 14:16:19;;;;;;;1999.90;999.90;;;;;;;;;;4975292;28;20239;-70
2022/04/28 14:19:03;;;;;;;1999.90;999.90;;;;;;;;;;4974887;28;20240;-71
2022/04/28 14:21:48;;;;;;;1999.90;999.90;;;;;;;;;;4974003;28;20411;-70
2022/04/28 14:24:33;;;;;;;1999.90;999.90;;;;;;;;;;4974300;28;20216;-70
2022/04/28 14:27:20;;;;;;;1999.90;999.90;;;;;;;;;;4970559;28;20207;-70
2022/04/28 14:30:06;;;;;;;1999.90;999.90;;;;;;;;;;4974615;28;20235;-71
2022/04/28 14:32:51;;;;;;;1999.90;999.90;;;;;;;;;;4973953;28;20427;-69
2022/04/28 14:35:37;;;;;;;1999.90;999.90;;;;;;;;;;4974453;28;20259;-71
2022/04/28 14:38:22;;;;;;;1999.90;999.90;;;;;;;;;;4974700;28;20678;-70
2022/04/28 14:41:06;;;;;;;1999.90;999.90;;;;;;;;;;4974980;28;20263;-71
2022/04/28 14:43:52;;;;;;;1999.90;999.90;;;;;;;;;;4974925;28;20327;-70
2022/04/28 14:46:37;;;;;;;1999.90;999.90;;;;;;;;;;4955043;28;20695;-70
2022/04/28 14:52:26;;;;;;;1999.90;999.90;;;;;;;;;;4955450;29;20208;-71
2022/04/28 14:55:12;;;;;;;1999.90;999.90;;;;;;;;;;4955199;29;20216;-69
2022/04/28 14:58:06;;;;;;;1999.90;999.90;;;;;;;;;;4954895;29;20416;-70
2022/04/28 15:00:52;;;;;;;1999.90;999.90;;;;;;;;;;4955222;28;20487;-69
2022/04/28 15:03:38;;;;;;;1999.90;999.90;;;;;;;;;;4955177;29;20204;-69
2022/04/28 15:06:23;;;;;;;1999.90;999.90;;;;;;;;;;4955161;29;20208;-70
2022/04/28 15:09:08;;;;;;;1999.90;999.90;;;;;;;;;;4954734;28;20284;-68
2022/04/28 15:11:53;;;;;;;1999.90;999.90;;;;;;;;;;4955604;29;20679;-68
2022/04/28 15:14:39;;;;;;;1999.90;999.90;;;;;;;;;;4954989;29;20260;-69
2022/04/28 15:17:25;;;;;;;1999.90;999.90;;;;;;;;;;4954737;29;20626;-69
2022/04/28 15:20:10;;;;;;;1999.90;999.90;;;;;;;;;;4955229;28;20236;-70
2022/04/28 15:22:56;;;;;;;1999.90;999.90;;;;;;;;;;4974485;28;20291;-69
2022/04/28 15:25:42;;;;;;;1999.90;999.90;;;;;;;;;;4974118;28;20208;-70
2022/04/28 15:28:27;;;;;;;1999.90;999.90;;;;;;;;;;4973668;28;20204;-70
2022/04/28 15:31:11;;;;;;;1999.90;999.90;;;;;;;;;;4973643;28;20247;-70
2022/04/28 15:34:00;;;;;;;1999.90;999.90;;;;;;;;;;4954632;29;20711;-69
2022/04/28 15:36:45;;;;;;;1999.90;999.90;;;;;;;;;;4965115;28;20223;-69
2022/04/28 15:39:31;;;;;;;1999.90;999.90;;;;;;;;;;4972202;28;20427;-69
2022/04/28 15:42:16;;;;;;;1999.90;999.90;;;;;;;;;;4972962;28;20208;-69
2022/04/28 15:45:01;;;;;;;1999.90;999.90;;;;;;;;;;4973040;28;20316;-69
2022/04/28 15:47:46;;;;;;;1999.90;999.90;;;;;;;;;;4973278;28;20204;-70
2022/04/28 15:50:33;;;;;;;1999.90;999.90;;;;;;;;;;4973255;28;20427;-71
2022/04/28 15:53:18;;;;;;;1999.90;999.90;;;;;;;;;;4973479;28;20570;-69
2022/04/28 15:56:02;;;;;;;1999.90;999.90;;;;;;;;;;4954243;29;20828;-69
2022/04/28 15:58:47;;;;;;;1999.90;999.90;;;;;;;;;;4953125;28;20695;-70
2022/04/28 16:01:33;;;;;;;1999.90;999.90;;;;;;;;;;4965383;28;20304;-69
2022/04/28 16:04:18;;;;;;;1999.90;999.90;;;;;;;;;;4973248;28;20204;-69
2022/04/28 16:07:04;;;;;;;1999.90;999.90;;;;;;;;;;4973471;28;20259;-69
2022/04/28 16:09:49;;;;;;;1999.90;999.90;;;;;;;;;;4972411;28;20228;-69